Wind Star — C6CA9 — position and weather

sailwx.info

Track history (hours):
 
Tides and Currents Weather Stations Pressure Air Temp Water Temp Dewpoint Dewpoint Depression Visibility Wind Speed Wind Dir Waves Ship Positions

Wind Star

Operator: Holland America Line

Last reported at 2018-Jun-18 18:06 UTC. Time now 2018-Jun-18 19:14 UTC.
Position N 37°45' E 025°44'.

Length 134 m; draft 4.1 m.

Type: Ship. MMSI: 309163000.

Date/timePositionNaut miles runAvg speedWind from/ knotsBaromVisibWave heightAir tempDewpointWater temp
2018-Jun-18 18:06N 37°45' E 025°44'110.1
2018-Jun-18 17:58N 37°44' E 025°43'510.0
2018-Jun-18 17:30N 37°41' E 025°38'510.5
2018-Jun-18 17:00N 37°38' E 025°33'510.7
2018-Jun-18 16:30N 37°35' E 025°27'610.2
2018-Jun-18 15:58N 37°32' E 025°21'4 8.7
2018-Jun-18 15:30N 37°30' E 025°18'3 5.8
2018-Jun-18 14:59N 37°27' E 025°19'0 0.0
2018-Jun-18 14:29N 37°27' E 025°19'0 0.0
2018-Jun-18 13:59N 37°27' E 025°19'0 0.0
2018-Jun-18 13:29N 37°27' E 025°19'0 0.0
2018-Jun-18 12:59N 37°27' E 025°19'0 0.0
2018-Jun-18 12:29N 37°27' E 025°19'0 0.0
2018-Jun-18 11:50N 37°27' E 025°19'0 0.0
2018-Jun-18 11:23N 37°27' E 025°19'0 0.0
2018-Jun-18 10:59N 37°27' E 025°19'0 0.0
2018-Jun-18 10:23N 37°27' E 025°19'0 0.1
2018-Jun-18 09:59N 37°27' E 025°19'0 0.0
2018-Jun-18 09:29N 37°27' E 025°19'0 0.1
2018-Jun-18 09:00N 37°27' E 025°19'0 0.0
2018-Jun-18 08:30N 37°27' E 025°19'0 0.0
2018-Jun-18 08:00N 37°27' E 025°19'0 0.0
2018-Jun-18 07:30N 37°27' E 025°19'0 0.0
2018-Jun-18 06:59N 37°27' E 025°19'0 0.0
2018-Jun-18 06:29N 37°27' E 025°19'0 0.0
2018-Jun-18 06:00N 37°27' E 025°19'0 0.0
2018-Jun-18 05:30N 37°27' E 025°19'0 0.0
2018-Jun-18 05:00N 37°27' E 025°19'0 0.1
2018-Jun-18 04:30N 37°27' E 025°19'1 1.3
2018-Jun-18 04:00N 37°27' E 025°18'4 7.7
2018-Jun-18 03:30N 37°27' E 025°13'4 8.3
2018-Jun-18 03:00N 37°26' E 025°08'6 8.0
2018-Jun-18 02:15N 37°23' E 025°02'2 7.8
2018-Jun-18 02:00N 37°22' E 024°60'4 7.6
2018-Jun-18 01:30N 37°20' E 024°56'4 7.7
2018-Jun-18 01:00N 37°19' E 024°51'4 7.8
2018-Jun-18 00:30N 37°18' E 024°46'54 1.8
2018-Jun-16 19:26N 37°17' E 023°39'18 7.4
2018-Jun-16 16:58N 37°35' E 023°43'4 7.7
2018-Jun-16 16:30N 37°39' E 023°42'4 7.6
2018-Jun-16 16:00N 37°42' E 023°41'4 7.7
2018-Jun-16 15:30N 37°46' E 023°39'4 7.9
2018-Jun-16 14:59N 37°50' E 023°37'4 8.0
2018-Jun-16 14:30N 37°53' E 023°36'3 6.5
2018-Jun-16 14:00N 37°56' E 023°38'0 0.4
2018-Jun-16 13:30N 37°56' E 023°38'0 0.0
2018-Jun-16 13:00N 37°56' E 023°38'0 0.0
2018-Jun-16 12:30N 37°56' E 023°38'0 0.0
2018-Jun-16 12:00N 37°56' E 023°38'0 0.0
2018-Jun-16 11:30N 37°56' E 023°38'0 0.0
2018-Jun-16 11:00N 37°56' E 023°38'0 0.0
2018-Jun-16 10:30N 37°56' E 023°38'0 0.0
2018-Jun-16 10:00N 37°56' E 023°38'0 0.0
2018-Jun-16 09:30N 37°56' E 023°38'0 0.0
2018-Jun-16 09:00N 37°56' E 023°38'0 0.0
2018-Jun-16 08:30N 37°56' E 023°38'0 0.0
2018-Jun-16 08:00N 37°56' E 023°38'0 0.0
2018-Jun-16 07:30N 37°56' E 023°38'0 0.0
2018-Jun-16 07:00N 37°56' E 023°38'0 0.0
2018-Jun-16 06:28N 37°56' E 023°38'0 0.0
2018-Jun-16 05:59N 37°56' E 023°38'0 0.0
2018-Jun-16 05:28N 37°56' E 023°38'0 0.0
2018-Jun-16 04:58N 37°56' E 023°38'0 0.0
2018-Jun-16 04:28N 37°56' E 023°38'0 0.0
2018-Jun-16 03:58N 37°56' E 023°38'0 0.0
2018-Jun-16 03:31N 37°56' E 023°38'2 3.1
2018-Jun-16 03:01N 37°56' E 023°36'2 3.9
2018-Jun-16 02:30N 37°54' E 023°37'3 6.3
2018-Jun-16 02:01N 37°51' E 023°39'4 7.3
2018-Jun-16 01:31N 37°48' E 023°41'3 6.9
2018-Jun-16 01:00N 37°45' E 023°43'40 6.8
2018-Jun-15 19:06N 37°06' E 023°28'40 2.3
2018-Jun-15 01:56N 36°31' E 023°52'4 9.0
2018-Jun-15 01:30N 36°30' E 023°57'4 8.7
2018-Jun-15 00:59N 36°29' E 024°02'10 8.4
2018-Jun-14 23:47N 36°27' E 024°14'3 8.4
2018-Jun-14 23:29N 36°26' E 024°17'8 8.6
2018-Jun-14 22:35N 36°25' E 024°27'2 8.9
2018-Jun-14 22:23N 36°25' E 024°29'4 8.9
2018-Jun-14 21:59N 36°25' E 024°34'  
2018-Jun-11 09:04N 37°43' E 025°47'1 9.2
2018-Jun-11 08:56N 37°43' E 025°46'510.0
2018-Jun-11 08:26N 37°42' E 025°39'4 8.9
2018-Jun-11 08:00N 37°40' E 025°35'4 8.7
2018-Jun-11 07:30N 37°38' E 025°31'4 8.2
2018-Jun-11 07:00N 37°36' E 025°26'4 7.4
2018-Jun-11 06:29N 37°33' E 025°23'3 6.8
2018-Jun-11 06:00N 37°31' E 025°19'3 6.5
2018-Jun-11 05:30N 37°29' E 025°17'2 4.1
2018-Jun-11 05:00N 37°27' E 025°19'0 0.1
2018-Jun-11 04:31N 37°27' E 025°19'1 1.3
2018-Jun-11 03:59N 37°27' E 025°19'3 6.7
2018-Jun-11 03:29N 37°27' E 025°14'4 7.5
2018-Jun-11 03:00N 37°27' E 025°10'4 7.4
2018-Jun-11 02:30N 37°25' E 025°06'4 7.5
2018-Jun-11 01:58N 37°23' E 025°01'4 7.7
2018-Jun-11 01:30N 37°21' E 024°58'4 7.8
2018-Jun-11 00:59N 37°19' E 024°53'4 7.8
2018-Jun-11 00:29N 37°18' E 024°48'73 2.8
2018-Jun-09 22:18N 37°09' E 023°17'6 7.0
2018-Jun-09 21:28N 37°09' E 023°25'4 7.1
2018-Jun-09 20:58N 37°10' E 023°29'27 7.2
2018-Jun-09 17:15N 37°34' E 023°42'2 7.7
2018-Jun-09 17:00N 37°36' E 023°43'4 8.0
2018-Jun-09 16:28N 37°40' E 023°42'4 8.0
2018-Jun-09 16:00N 37°44' E 023°40'8 8.3
2018-Jun-09 15:00N 37°52' E 023°36'4 7.5
2018-Jun-09 14:30N 37°55' E 023°36'2 3.3
2018-Jun-09 13:59N 37°56' E 023°38'0 0.0
2018-Jun-09 13:28N 37°56' E 023°38'0 0.0
2018-Jun-09 12:58N 37°56' E 023°38'0 0.0
2018-Jun-09 12:28N 37°56' E 023°38'0 0.0
2018-Jun-09 11:58N 37°56' E 023°38'0 0.0
2018-Jun-09 11:29N 37°56' E 023°38'0 0.0
2018-Jun-09 10:58N 37°56' E 023°38'0 0.0
2018-Jun-09 10:29N 37°56' E 023°38'0 0.0
2018-Jun-09 09:58N 37°56' E 023°38'0 0.0
2018-Jun-09 09:28N 37°56' E 023°38'0 0.0
2018-Jun-09 08:59N 37°56' E 023°38'0 0.0
2018-Jun-09 08:28N 37°56' E 023°38'0 0.0
2018-Jun-09 08:00N 37°56' E 023°38'0 0.0
2018-Jun-09 05:58N 37°56' E 023°38'0 0.0
2018-Jun-09 05:28N 37°56' E 023°38'0 0.0
2018-Jun-09 04:58N 37°56' E 023°38'0 0.0
2018-Jun-09 04:28N 37°56' E 023°38'0 0.6
2018-Jun-09 04:00N 37°56' E 023°38'2 3.3
2018-Jun-09 03:30N 37°55' E 023°36'1 2.8
2018-Jun-09 03:00N 37°54' E 023°37'3 6.3
2018-Jun-09 02:30N 37°51' E 023°39'3 6.4
2018-Jun-09 02:00N 37°48' E 023°41'3 6.4
2018-Jun-09 01:30N 37°45' E 023°42'3 6.5
2018-Jun-09 01:00N 37°42' E 023°44'3 6.4
2018-Jun-09 00:30N 37°39' E 023°46'3 6.5
2018-Jun-08 23:59N 37°36' E 023°46'3 6.5
2018-Jun-08 23:30N 37°33' E 023°46'3 6.8
2018-Jun-08 23:00N 37°30' E 023°47'4 7.1
2018-Jun-08 22:30N 37°26' E 023°46'4 7.4
2018-Jun-08 22:00N 37°23' E 023°44'4 7.4
2018-Jun-08 21:30N 37°20' E 023°41'4 7.4
2018-Jun-08 21:00N 37°17' E 023°38'4 7.4
2018-Jun-08 20:30N 37°14' E 023°36'4 7.4
2018-Jun-08 20:00N 37°11' E 023°33'4 7.4
2018-Jun-08 19:27N 37°08' E 023°30'  
Track history (hours):
 
Tides and Currents Weather Stations Pressure Air Temp Water Temp Dewpoint Dewpoint Depression Visibility Wind Speed Wind Dir Waves Ship Positions

Wind Star

Operator: Holland America Line

Last reported at 2018-Jun-18 18:06 UTC. Time now 2018-Jun-18 19:14 UTC.
Position N 37°45' E 025°44'.

Length 134 m; draft 4.1 m.

Type: Ship. MMSI: 309163000.

Date/timePositionNaut miles runAvg speedWind from/ knotsBaromVisibWave heightAir tempDewpointWater temp
2018-Jun-18 18:06N 37°45' E 025°44'110.1
2018-Jun-18 17:58N 37°44' E 025°43'510.0
2018-Jun-18 17:30N 37°41' E 025°38'510.5
2018-Jun-18 17:00N 37°38' E 025°33'510.7
2018-Jun-18 16:30N 37°35' E 025°27'610.2
2018-Jun-18 15:58N 37°32' E 025°21'4 8.7
2018-Jun-18 15:30N 37°30' E 025°18'3 5.8
2018-Jun-18 14:59N 37°27' E 025°19'0 0.0
2018-Jun-18 14:29N 37°27' E 025°19'0 0.0
2018-Jun-18 13:59N 37°27' E 025°19'0 0.0
2018-Jun-18 13:29N 37°27' E 025°19'0 0.0
2018-Jun-18 12:59N 37°27' E 025°19'0 0.0
2018-Jun-18 12:29N 37°27' E 025°19'0 0.0
2018-Jun-18 11:50N 37°27' E 025°19'0 0.0
2018-Jun-18 11:23N 37°27' E 025°19'0 0.0
2018-Jun-18 10:59N 37°27' E 025°19'0 0.0
2018-Jun-18 10:23N 37°27' E 025°19'0 0.1
2018-Jun-18 09:59N 37°27' E 025°19'0 0.0
2018-Jun-18 09:29N 37°27' E 025°19'0 0.1
2018-Jun-18 09:00N 37°27' E 025°19'0 0.0
2018-Jun-18 08:30N 37°27' E 025°19'0 0.0
2018-Jun-18 08:00N 37°27' E 025°19'0 0.0
2018-Jun-18 07:30N 37°27' E 025°19'0 0.0
2018-Jun-18 06:59N 37°27' E 025°19'0 0.0
2018-Jun-18 06:29N 37°27' E 025°19'0 0.0
2018-Jun-18 06:00N 37°27' E 025°19'0 0.0
2018-Jun-18 05:30N 37°27' E 025°19'0 0.0
2018-Jun-18 05:00N 37°27' E 025°19'0 0.1
2018-Jun-18 04:30N 37°27' E 025°19'1 1.3
2018-Jun-18 04:00N 37°27' E 025°18'4 7.7
2018-Jun-18 03:30N 37°27' E 025°13'4 8.3
2018-Jun-18 03:00N 37°26' E 025°08'6 8.0
2018-Jun-18 02:15N 37°23' E 025°02'2 7.8
2018-Jun-18 02:00N 37°22' E 024°60'4 7.6
2018-Jun-18 01:30N 37°20' E 024°56'4 7.7
2018-Jun-18 01:00N 37°19' E 024°51'4 7.8
2018-Jun-18 00:30N 37°18' E 024°46'54 1.8
2018-Jun-16 19:26N 37°17' E 023°39'18 7.4
2018-Jun-16 16:58N 37°35' E 023°43'4 7.7
2018-Jun-16 16:30N 37°39' E 023°42'4 7.6
2018-Jun-16 16:00N 37°42' E 023°41'4 7.7
2018-Jun-16 15:30N 37°46' E 023°39'4 7.9
2018-Jun-16 14:59N 37°50' E 023°37'4 8.0
2018-Jun-16 14:30N 37°53' E 023°36'3 6.5
2018-Jun-16 14:00N 37°56' E 023°38'0 0.4
2018-Jun-16 13:30N 37°56' E 023°38'0 0.0
2018-Jun-16 13:00N 37°56' E 023°38'0 0.0
2018-Jun-16 12:30N 37°56' E 023°38'0 0.0
2018-Jun-16 12:00N 37°56' E 023°38'0 0.0
2018-Jun-16 11:30N 37°56' E 023°38'0 0.0
2018-Jun-16 11:00N 37°56' E 023°38'0 0.0
2018-Jun-16 10:30N 37°56' E 023°38'0 0.0
2018-Jun-16 10:00N 37°56' E 023°38'0 0.0
2018-Jun-16 09:30N 37°56' E 023°38'0 0.0
2018-Jun-16 09:00N 37°56' E 023°38'0 0.0
2018-Jun-16 08:30N 37°56' E 023°38'0 0.0
2018-Jun-16 08:00N 37°56' E 023°38'0 0.0
2018-Jun-16 07:30N 37°56' E 023°38'0 0.0
2018-Jun-16 07:00N 37°56' E 023°38'0 0.0
2018-Jun-16 06:28N 37°56' E 023°38'0 0.0
2018-Jun-16 05:59N 37°56' E 023°38'0 0.0
2018-Jun-16 05:28N 37°56' E 023°38'0 0.0
2018-Jun-16 04:58N 37°56' E 023°38'0 0.0
2018-Jun-16 04:28N 37°56' E 023°38'0 0.0
2018-Jun-16 03:58N 37°56' E 023°38'0 0.0
2018-Jun-16 03:31N 37°56' E 023°38'2 3.1
2018-Jun-16 03:01N 37°56' E 023°36'2 3.9
2018-Jun-16 02:30N 37°54' E 023°37'3 6.3
2018-Jun-16 02:01N 37°51' E 023°39'4 7.3
2018-Jun-16 01:31N 37°48' E 023°41'3 6.9
2018-Jun-16 01:00N 37°45' E 023°43'40 6.8
2018-Jun-15 19:06N 37°06' E 023°28'40 2.3
2018-Jun-15 01:56N 36°31' E 023°52'4 9.0
2018-Jun-15 01:30N 36°30' E 023°57'4 8.7
2018-Jun-15 00:59N 36°29' E 024°02'10 8.4
2018-Jun-14 23:47N 36°27' E 024°14'3 8.4
2018-Jun-14 23:29N 36°26' E 024°17'8 8.6
2018-Jun-14 22:35N 36°25' E 024°27'2 8.9
2018-Jun-14 22:23N 36°25' E 024°29'4 8.9
2018-Jun-14 21:59N 36°25' E 024°34'  
2018-Jun-11 09:04N 37°43' E 025°47'1 9.2
2018-Jun-11 08:56N 37°43' E 025°46'510.0
2018-Jun-11 08:26N 37°42' E 025°39'4 8.9
2018-Jun-11 08:00N 37°40' E 025°35'4 8.7
2018-Jun-11 07:30N 37°38' E 025°31'4 8.2
2018-Jun-11 07:00N 37°36' E 025°26'4 7.4
2018-Jun-11 06:29N 37°33' E 025°23'3 6.8
2018-Jun-11 06:00N 37°31' E 025°19'3 6.5
2018-Jun-11 05:30N 37°29' E 025°17'2 4.1
2018-Jun-11 05:00N 37°27' E 025°19'0 0.1
2018-Jun-11 04:31N 37°27' E 025°19'1 1.3
2018-Jun-11 03:59N 37°27' E 025°19'3 6.7
2018-Jun-11 03:29N 37°27' E 025°14'4 7.5
2018-Jun-11 03:00N 37°27' E 025°10'4 7.4
2018-Jun-11 02:30N 37°25' E 025°06'4 7.5
2018-Jun-11 01:58N 37°23' E 025°01'4 7.7
2018-Jun-11 01:30N 37°21' E 024°58'4 7.8
2018-Jun-11 00:59N 37°19' E 024°53'4 7.8
2018-Jun-11 00:29N 37°18' E 024°48'73 2.8
2018-Jun-09 22:18N 37°09' E 023°17'6 7.0
2018-Jun-09 21:28N 37°09' E 023°25'4 7.1
2018-Jun-09 20:58N 37°10' E 023°29'27 7.2
2018-Jun-09 17:15N 37°34' E 023°42'2 7.7
2018-Jun-09 17:00N 37°36' E 023°43'4 8.0
2018-Jun-09 16:28N 37°40' E 023°42'4 8.0
2018-Jun-09 16:00N 37°44' E 023°40'8 8.3
2018-Jun-09 15:00N 37°52' E 023°36'4 7.5
2018-Jun-09 14:30N 37°55' E 023°36'2 3.3
2018-Jun-09 13:59N 37°56' E 023°38'0 0.0
2018-Jun-09 13:28N 37°56' E 023°38'0 0.0
2018-Jun-09 12:58N 37°56' E 023°38'0 0.0
2018-Jun-09 12:28N 37°56' E 023°38'0 0.0
2018-Jun-09 11:58N 37°56' E 023°38'0 0.0
2018-Jun-09 11:29N 37°56' E 023°38'0 0.0
2018-Jun-09 10:58N 37°56' E 023°38'0 0.0
2018-Jun-09 10:29N 37°56' E 023°38'0 0.0
2018-Jun-09 09:58N 37°56' E 023°38'0 0.0
2018-Jun-09 09:28N 37°56' E 023°38'0 0.0
2018-Jun-09 08:59N 37°56' E 023°38'0 0.0
2018-Jun-09 08:28N 37°56' E 023°38'0 0.0
2018-Jun-09 08:00N 37°56' E 023°38'0 0.0
2018-Jun-09 05:58N 37°56' E 023°38'0 0.0
2018-Jun-09 05:28N 37°56' E 023°38'0 0.0
2018-Jun-09 04:58N 37°56' E 023°38'0 0.0
2018-Jun-09 04:28N 37°56' E 023°38'0 0.6
2018-Jun-09 04:00N 37°56' E 023°38'2 3.3
2018-Jun-09 03:30N 37°55' E 023°36'1 2.8
2018-Jun-09 03:00N 37°54' E 023°37'3 6.3
2018-Jun-09 02:30N 37°51' E 023°39'3 6.4
2018-Jun-09 02:00N 37°48' E 023°41'3 6.4
2018-Jun-09 01:30N 37°45' E 023°42'3 6.5
2018-Jun-09 01:00N 37°42' E 023°44'3 6.4
2018-Jun-09 00:30N 37°39' E 023°46'3 6.5
2018-Jun-08 23:59N 37°36' E 023°46'3 6.5
2018-Jun-08 23:30N 37°33' E 023°46'3 6.8
2018-Jun-08 23:00N 37°30' E 023°47'4 7.1
2018-Jun-08 22:30N 37°26' E 023°46'4 7.4
2018-Jun-08 22:00N 37°23' E 023°44'4 7.4
2018-Jun-08 21:30N 37°20' E 023°41'4 7.4
2018-Jun-08 21:00N 37°17' E 023°38'4 7.4
2018-Jun-08 20:30N 37°14' E 023°36'4 7.4
2018-Jun-08 20:00N 37°11' E 023°33'4 7.4
2018-Jun-08 19:27N 37°08' E 023°30'  

Dump ship's entire track history